createdAt,value
2019-05-07T00:01:23.241Z,3.80
2019-05-07T00:03:55.005Z,4.93
2019-05-07T00:06:26.788Z,4.03
2019-05-07T00:08:58.268Z,4.10
2019-05-07T00:11:29.691Z,3.50
2019-05-07T00:14:03.031Z,3.33
2019-05-07T00:16:33.817Z,4.33
2019-05-07T00:19:07.189Z,3.97
2019-05-07T00:21:38.575Z,3.40
2019-05-07T00:24:13.325Z,3.47
2019-05-07T00:26:44.820Z,4.77
2019-05-07T00:29:16.381Z,4.33
2019-05-07T00:31:47.640Z,5.07
2019-05-07T00:34:21.999Z,5.30
2019-05-07T00:37:02.190Z,4.00
2019-05-07T00:39:55.408Z,4.00
2019-05-07T00:42:53.016Z,5.30
2019-05-07T00:45:34.298Z,4.87
2019-05-07T00:48:05.831Z,4.43
2019-05-07T00:50:38.926Z,4.93
2019-05-07T00:53:10.259Z,4.43
2019-05-07T00:55:42.304Z,4.27
2019-05-07T00:58:13.796Z,4.17
2019-05-07T01:00:45.023Z,3.90
2019-05-07T01:03:16.232Z,3.83
2019-05-07T01:05:47.470Z,3.90
2019-05-07T01:08:18.703Z,4.30
2019-05-07T01:10:52.630Z,4.40
2019-05-07T01:13:25.939Z,5.50
2019-05-07T01:15:57.601Z,5.40
2019-05-07T01:18:29.183Z,5.30
2019-05-07T01:21:02.402Z,4.50
2019-05-07T01:23:33.910Z,3.90
2019-05-07T01:26:05.428Z,5.57
2019-05-07T01:28:55.030Z,5.43
2019-05-07T01:31:28.510Z,4.40
2019-05-07T01:34:22.961Z,4.10
2019-05-07T01:36:53.976Z,4.17
2019-05-07T01:39:25.160Z,3.73
2019-05-07T01:41:56.558Z,4.77
2019-05-07T01:44:28.121Z,4.67
2019-05-07T01:46:59.502Z,4.90
2019-05-07T01:49:33.137Z,4.50
2019-05-07T01:52:05.584Z,4.97
2019-05-07T01:54:36.793Z,4.33
2019-05-07T01:57:08.006Z,4.93
2019-05-07T01:59:39.404Z,4.43
2019-05-07T02:02:31.922Z,4.93
2019-05-07T02:05:13.904Z,5.77
2019-05-07T02:07:52.128Z,7.40
2019-05-07T02:10:38.130Z,8.77
2019-05-07T02:13:09.584Z,6.80
2019-05-07T02:15:42.842Z,5.60
2019-05-07T02:18:14.172Z,5.13
2019-05-07T02:20:45.780Z,7.60
2019-05-07T02:23:17.073Z,13.10
2019-05-07T02:25:48.736Z,10.87
2019-05-07T02:28:22.274Z,8.50
2019-05-07T02:30:54.061Z,6.03
2019-05-07T02:33:27.821Z,5.80
2019-05-07T02:35:59.394Z,5.93
2019-05-07T02:38:37.488Z,7.47
2019-05-07T02:41:18.441Z,7.40
2019-05-07T02:43:49.687Z,9.30
2019-05-07T02:46:52.882Z,7.90
2019-05-07T02:49:33.058Z,7.37
2019-05-07T02:52:13.474Z,6.40
2019-05-07T02:55:03.924Z,5.00
2019-05-07T02:57:35.833Z,4.93
2019-05-07T03:00:07.457Z,4.57
2019-05-07T03:02:38.725Z,4.90
2019-05-07T03:05:13.676Z,5.67
2019-05-07T03:07:43.665Z,4.90
2019-05-07T03:10:15.095Z,4.10
2019-05-07T03:12:46.510Z,5.20
2019-05-07T03:15:17.995Z,4.87
2019-05-07T03:17:49.593Z,5.67
2019-05-07T03:20:25.403Z,5.27
2019-05-07T03:22:57.949Z,4.57
2019-05-07T03:25:34.442Z,4.43
2019-05-07T03:28:05.910Z,4.87
2019-05-07T03:30:56.150Z,5.80
2019-05-07T03:33:36.605Z,5.60
2019-05-07T03:36:07.968Z,6.30
2019-05-07T03:38:39.701Z,8.10
2019-05-07T03:41:12.859Z,5.90
2019-05-07T03:43:46.966Z,7.07
2019-05-07T03:46:23.206Z,6.70
2019-05-07T03:48:53.266Z,6.10
2019-05-07T03:51:24.645Z,6.20
2019-05-07T03:53:55.921Z,5.57
2019-05-07T03:56:27.153Z,6.13
2019-05-07T03:58:58.598Z,5.50
2019-05-07T04:01:33.443Z,7.70
2019-05-07T04:04:05.760Z,14.80
2019-05-07T04:06:37.596Z,16.00
2019-05-07T04:09:08.971Z,13.30
2019-05-07T04:11:43.080Z,10.43
2019-05-07T04:14:13.792Z,8.63
2019-05-07T04:16:45.263Z,9.13
2019-05-07T04:19:16.497Z,6.97
2019-05-07T04:21:47.708Z,5.53
2019-05-07T04:24:34.457Z,5.53
2019-05-07T04:27:16.162Z,5.63
2019-05-07T04:29:47.394Z,6.37
2019-05-07T04:32:23.027Z,5.20
2019-05-07T04:35:03.824Z,6.07
2019-05-07T04:37:35.521Z,5.30
2019-05-07T04:40:06.923Z,8.57
2019-05-07T04:42:38.703Z,6.97
2019-05-07T04:45:13.576Z,7.00
2019-05-07T04:47:47.548Z,5.70
2019-05-07T04:50:37.257Z,7.00
2019-05-07T04:52:54.067Z,6.20
2019-05-07T04:55:24.759Z,7.53
2019-05-07T04:57:56.099Z,5.77
2019-05-07T05:00:27.573Z,5.67
2019-05-07T05:03:05.754Z,7.03
2019-05-07T05:05:36.993Z,9.07
2019-05-07T05:08:08.218Z,7.80
2019-05-07T05:10:39.483Z,6.33
2019-05-07T05:13:12.978Z,5.70
2019-05-07T05:15:43.733Z,6.90
2019-05-07T05:18:15.306Z,6.20
2019-05-07T05:21:12.172Z,6.30
2019-05-07T05:24:08.412Z,6.20
2019-05-07T05:26:41.844Z,6.27
2019-05-07T05:29:12.897Z,6.33
2019-05-07T05:31:44.115Z,6.33
2019-05-07T05:34:15.861Z,5.60
2019-05-07T05:36:47.457Z,5.30
2019-05-07T05:39:18.799Z,6.53
2019-05-07T05:41:53.830Z,6.23
2019-05-07T05:44:32.059Z,6.60
2019-05-07T05:47:03.273Z,6.63
2019-05-07T05:49:34.526Z,6.60
2019-05-07T05:52:22.254Z,6.90
2019-05-07T05:55:02.526Z,8.23
2019-05-07T05:57:52.011Z,6.93
2019-05-07T06:00:42.316Z,7.87
2019-05-07T06:03:25.925Z,8.90
2019-05-07T06:06:12.751Z,9.50
2019-05-07T06:09:09.387Z,9.50
2019-05-07T06:12:03.450Z,7.87
2019-05-07T06:14:44.294Z,8.20
2019-05-07T06:17:42.364Z,8.40
2019-05-07T06:20:32.546Z,9.43
2019-05-07T06:23:32.960Z,8.33
2019-05-07T06:26:05.468Z,9.00
2019-05-07T06:28:37.134Z,8.50
2019-05-07T06:31:08.828Z,8.73
2019-05-07T06:33:40.082Z,10.77
2019-05-07T06:36:12.546Z,9.43
2019-05-07T06:38:53.085Z,9.63
2019-05-07T06:41:42.156Z,8.33
2019-05-07T06:44:18.042Z,9.13
2019-05-07T06:46:52.656Z,9.63
2019-05-07T06:49:24.208Z,9.50
2019-05-07T06:51:55.485Z,9.40
2019-05-07T06:54:26.723Z,8.70
2019-05-07T06:56:58.122Z,9.33
2019-05-07T06:59:43.599Z,7.73
2019-05-07T07:02:36.879Z,6.30
2019-05-07T07:11:38.145Z,3.43
2019-05-07T07:14:09.360Z,3.70
2019-05-07T07:16:42.039Z,2.83
2019-05-07T07:19:13.468Z,3.40
2019-05-07T07:21:45.402Z,4.57
2019-05-07T07:24:16.992Z,4.10
2019-05-07T07:26:49.111Z,4.40
2019-05-07T07:29:24.072Z,3.40
2019-05-07T07:31:58.558Z,3.77
2019-05-07T07:34:33.283Z,3.83
2019-05-07T07:37:19.017Z,3.63
2019-05-07T07:39:52.447Z,2.77
2019-05-07T07:42:23.825Z,2.87
2019-05-07T07:45:14.893Z,3.70
2019-05-07T07:47:46.880Z,2.73
2019-05-07T07:50:18.499Z,2.03
2019-05-07T07:52:53.003Z,2.87
2019-05-07T07:55:34.128Z,3.90
2019-05-07T07:58:12.236Z,3.10
2019-05-07T08:01:05.483Z,2.90
2019-05-07T08:03:37.917Z,3.33
2019-05-07T08:06:09.304Z,3.27
2019-05-07T08:08:42.457Z,2.90
2019-05-07T08:11:14.080Z,2.30
2019-05-07T08:13:45.806Z,2.70
2019-05-07T08:16:17.015Z,2.60
2019-05-07T08:18:48.632Z,2.87
2019-05-07T08:21:19.837Z,3.60
2019-05-07T08:23:52.859Z,2.57
2019-05-07T08:26:24.400Z,3.70
2019-05-07T08:28:56.084Z,3.80
2019-05-07T08:31:42.466Z,4.17
2019-05-07T08:34:27.829Z,4.20
2019-05-07T08:36:59.334Z,3.90
2019-05-07T08:39:32.554Z,4.07
2019-05-07T08:42:04.501Z,4.20
2019-05-07T08:44:52.052Z,4.77
2019-05-07T08:47:31.928Z,3.50
2019-05-07T08:50:03.356Z,2.93
2019-05-07T08:52:34.551Z,3.23
2019-05-07T08:55:07.587Z,3.70
2019-05-07T08:57:38.992Z,3.73
2019-05-07T09:00:14.288Z,3.87
2019-05-07T09:02:47.070Z,4.00
2019-05-07T09:05:18.519Z,4.13
2019-05-07T09:07:51.640Z,3.50
2019-05-07T09:10:23.030Z,4.00
2019-05-07T09:12:54.441Z,4.33
2019-05-07T09:15:25.820Z,3.40
2019-05-07T09:17:57.382Z,3.90
2019-05-07T09:20:28.686Z,3.63
2019-05-07T09:23:02.151Z,5.20
2019-05-07T09:25:36.584Z,3.30
2019-05-07T09:28:08.750Z,2.87
2019-05-07T09:30:58.722Z,3.47
2019-05-07T09:33:34.197Z,3.20
2019-05-07T09:36:08.610Z,3.30
2019-05-07T09:38:41.844Z,3.10
2019-05-07T09:41:27.015Z,3.13
2019-05-07T09:43:59.127Z,4.27
2019-05-07T09:46:32.533Z,3.37
2019-05-07T09:49:03.587Z,2.70
2019-05-07T09:51:35.002Z,5.00
2019-05-07T09:54:06.350Z,6.67
2019-05-07T09:56:37.630Z,7.53
2019-05-07T09:59:09.054Z,7.77
2019-05-07T10:01:41.708Z,6.37
2019-05-07T10:04:13.964Z,6.97
2019-05-07T10:06:46.124Z,7.90
2019-05-07T10:09:19.256Z,7.80
2019-05-07T10:11:57.309Z,8.00
2019-05-07T10:14:30.163Z,7.00
2019-05-07T10:17:11.955Z,7.43
2019-05-07T10:19:45.437Z,6.73
2019-05-07T10:22:17.073Z,7.63
2019-05-07T10:24:52.098Z,5.50
2019-05-07T10:27:23.150Z,6.10
2019-05-07T10:29:54.386Z,6.17
2019-05-07T10:32:26.019Z,6.57
2019-05-07T10:34:57.243Z,7.63
2019-05-07T10:37:28.656Z,7.00
2019-05-07T10:40:02.850Z,10.57
2019-05-07T10:42:34.020Z,9.47
2019-05-07T10:45:17.011Z,10.57
2019-05-07T10:47:59.978Z,8.43
2019-05-07T10:50:38.764Z,9.53
2019-05-07T10:53:04.328Z,10.30
2019-05-07T10:55:35.546Z,10.00
2019-05-07T10:58:06.891Z,7.70
2019-05-07T11:00:38.343Z,10.73
2019-05-07T11:03:09.940Z,11.13
2019-05-07T11:05:41.877Z,9.33
2019-05-07T11:08:13.381Z,8.83
2019-05-07T11:10:45.482Z,8.27
2019-05-07T11:13:16.717Z,10.37
2019-05-07T11:15:51.785Z,10.20
2019-05-07T11:18:32.419Z,9.13
2019-05-07T11:21:05.484Z,9.27
2019-05-07T11:23:36.698Z,8.40
2019-05-07T11:26:07.880Z,8.73
2019-05-07T11:28:39.492Z,8.00
2019-05-07T11:31:12.432Z,8.90
2019-05-07T11:33:43.922Z,8.13
2019-05-07T11:36:15.292Z,9.30
2019-05-07T11:38:47.340Z,8.83
2019-05-07T11:41:22.924Z,8.90
2019-05-07T11:44:01.763Z,11.03
2019-05-07T11:46:44.461Z,8.73
2019-05-07T11:49:23.041Z,8.60
2019-05-07T11:52:02.445Z,8.33
2019-05-07T11:54:34.201Z,9.30
2019-05-07T11:57:05.579Z,8.10
2019-05-07T11:59:37.165Z,7.50
2019-05-07T12:02:08.912Z,9.00
2019-05-07T12:04:42.223Z,7.67
2019-05-07T12:07:13.838Z,8.30
2019-05-07T12:09:45.108Z,8.30
2019-05-07T12:12:16.498Z,7.20
2019-05-07T12:14:47.761Z,7.23
2019-05-07T12:17:19.463Z,6.60
2019-05-07T12:19:52.684Z,5.60
2019-05-07T12:22:58.933Z,4.90
2019-05-07T12:25:32.114Z,6.30
2019-05-07T12:28:03.449Z,4.90
2019-05-07T12:31:12.215Z,6.67
2019-05-07T12:33:52.037Z,5.47
2019-05-07T12:36:23.233Z,5.63
2019-05-07T12:38:54.658Z,5.87
2019-05-07T12:41:30.187Z,5.83
2019-05-07T12:44:04.670Z,6.57
2019-05-07T12:46:36.388Z,6.27
2019-05-07T12:49:07.634Z,8.13
2019-05-07T12:52:02.937Z,8.00
2019-05-07T12:54:53.566Z,6.80
2019-05-07T12:57:24.790Z,7.33
2019-05-07T12:59:58.794Z,6.70
2019-05-07T13:02:44.442Z,6.60
2019-05-07T13:05:16.295Z,6.90
2019-05-07T13:07:51.463Z,7.87
2019-05-07T13:10:22.698Z,7.80
2019-05-07T13:12:53.926Z,7.97
2019-05-07T13:15:28.086Z,6.33
2019-05-07T13:17:58.326Z,6.00
2019-05-07T13:20:29.599Z,6.37
2019-05-07T13:23:01.001Z,6.60
2019-05-07T13:25:32.654Z,6.70
2019-05-07T13:28:03.874Z,4.80
2019-05-07T13:30:35.298Z,5.30
2019-05-07T13:33:06.912Z,5.33
2019-05-07T13:35:38.685Z,4.97
2019-05-07T13:38:27.653Z,5.10
2019-05-07T13:41:22.771Z,4.20
2019-05-07T13:44:16.340Z,4.07
2019-05-07T13:46:49.603Z,5.00
2019-05-07T13:49:21.931Z,5.50
2019-05-07T13:52:03.378Z,4.10
2019-05-07T13:54:28.705Z,5.50
2019-05-07T13:57:00.018Z,16.10
2019-05-07T13:59:31.761Z,13.43
2019-05-07T14:02:07.471Z,10.23
2019-05-07T14:04:38.996Z,5.97
2019-05-07T14:07:12.533Z,7.20
2019-05-07T14:09:43.851Z,5.17
2019-05-07T14:12:15.122Z,5.47
2019-05-07T14:14:47.211Z,5.60
2019-05-07T14:17:21.915Z,7.63
2019-05-07T14:19:53.274Z,7.00
2019-05-07T14:22:24.634Z,6.13
2019-05-07T14:24:56.071Z,5.73
2019-05-07T14:27:27.290Z,4.70
2019-05-07T14:29:58.620Z,4.50
2019-05-07T14:32:42.349Z,4.20
2019-05-07T14:35:31.783Z,4.57
2019-05-07T14:38:06.404Z,5.03
2019-05-07T14:40:37.791Z,5.77
2019-05-07T14:43:17.787Z,4.47
2019-05-07T14:45:48.960Z,4.70
2019-05-07T14:48:22.414Z,7.07
2019-05-07T14:50:55.235Z,14.30
2019-05-07T14:53:27.306Z,28.03
2019-05-07T14:55:58.986Z,23.67
2019-05-07T14:58:31.932Z,15.50
2019-05-07T15:01:03.631Z,9.00
2019-05-07T15:03:35.380Z,7.87
2019-05-07T15:06:07.018Z,5.80
2019-05-07T15:08:38.219Z,5.80
2019-05-07T15:11:09.786Z,6.37
2019-05-07T15:13:42.762Z,4.80
2019-05-07T15:16:14.555Z,6.37
2019-05-07T15:18:52.933Z,5.40
2019-05-07T15:21:24.347Z,4.10
2019-05-07T15:23:57.125Z,4.33
2019-05-07T15:26:28.592Z,4.20
2019-05-07T15:29:05.654Z,4.13
2019-05-07T15:31:59.149Z,5.33
2019-05-07T15:34:32.653Z,4.33
2019-05-07T15:37:03.709Z,5.03
2019-05-07T15:39:35.123Z,4.97
2019-05-07T15:42:06.472Z,5.87
2019-05-07T15:44:37.684Z,7.47
2019-05-07T15:47:13.753Z,5.27
2019-05-07T15:49:44.942Z,5.43
2019-05-07T15:52:22.263Z,5.80
2019-05-07T15:54:53.842Z,4.70
2019-05-07T15:57:27.590Z,5.53
2019-05-07T16:00:08.611Z,5.70
2019-05-07T16:02:45.338Z,4.90
2019-05-07T16:05:18.369Z,4.60
2019-05-07T16:07:51.082Z,3.77
2019-05-07T16:10:23.211Z,4.30
2019-05-07T16:12:54.897Z,4.50
2019-05-07T16:15:26.267Z,4.97
2019-05-07T16:18:02.834Z,5.40
2019-05-07T16:20:36.054Z,4.03
2019-05-07T16:23:14.879Z,3.80
2019-05-07T16:25:42.219Z,3.90
2019-05-07T16:28:13.666Z,3.57
2019-05-07T16:30:45.053Z,4.20
2019-05-07T16:33:16.465Z,4.20
2019-05-07T16:35:47.916Z,4.20
2019-05-07T16:38:19.241Z,4.47
2019-05-07T16:40:52.311Z,5.17
2019-05-07T16:43:27.014Z,4.83
2019-05-07T16:45:58.282Z,5.00
2019-05-07T16:48:29.667Z,4.13
2019-05-07T16:51:02.343Z,4.33
2019-05-07T16:53:35.352Z,4.53
2019-05-07T16:56:06.838Z,4.03
2019-05-07T16:58:42.988Z,5.03
2019-05-07T17:01:14.735Z,5.10
2019-05-07T17:03:53.547Z,5.00
2019-05-07T17:06:25.331Z,5.10
2019-05-07T17:09:04.873Z,4.80
2019-05-07T17:11:36.177Z,5.17
2019-05-07T17:14:07.508Z,5.23
2019-05-07T17:16:38.756Z,5.30
2019-05-07T17:19:11.907Z,4.97
2019-05-07T17:21:43.691Z,3.93
2019-05-07T17:24:15.187Z,5.23
2019-05-07T17:26:46.464Z,4.57
2019-05-07T17:29:18.056Z,4.60
2019-05-07T17:31:49.388Z,4.80
2019-05-07T17:34:22.157Z,4.63
2019-05-07T17:36:53.763Z,4.40
2019-05-07T17:39:24.968Z,4.30
2019-05-07T17:41:56.180Z,4.63
2019-05-07T17:44:28.220Z,5.20
2019-05-07T17:47:01.792Z,4.30
2019-05-07T17:49:33.999Z,4.30
2019-05-07T17:52:05.680Z,5.23
2019-05-07T17:54:36.996Z,4.70
2019-05-07T17:57:08.300Z,6.57
2019-05-07T17:59:39.507Z,5.57
2019-05-07T18:02:24.362Z,5.07
2019-05-07T18:04:55.635Z,5.00
2019-05-07T18:07:28.485Z,4.43
2019-05-07T18:10:02.265Z,4.80
2019-05-07T18:12:33.144Z,5.30
2019-05-07T18:15:06.639Z,5.67
2019-05-07T18:18:00.876Z,5.00
2019-05-07T18:20:32.958Z,5.20
2019-05-07T18:23:06.904Z,4.63
2019-05-07T18:25:37.712Z,5.43
2019-05-07T18:28:08.937Z,5.40
2019-05-07T18:30:40.293Z,5.50
2019-05-07T18:33:25.570Z,5.37
2019-05-07T18:35:56.159Z,6.60
2019-05-07T18:38:27.650Z,7.20
2019-05-07T18:40:58.928Z,6.33
2019-05-07T18:43:30.209Z,7.07
2019-05-07T18:46:02.264Z,9.30
2019-05-07T18:48:37.190Z,8.37
2019-05-07T18:51:08.529Z,8.40
2019-05-07T18:53:52.113Z,7.57
2019-05-07T18:56:24.033Z,8.27
2019-05-07T18:58:55.226Z,6.60
2019-05-07T19:01:28.377Z,7.20
2019-05-07T19:04:01.934Z,5.80
2019-05-07T19:06:32.983Z,7.37
2019-05-07T19:09:07.344Z,8.63
2019-05-07T19:11:38.727Z,7.00
2019-05-07T19:14:10.337Z,6.50
2019-05-07T19:16:43.069Z,7.10
2019-05-07T19:19:14.762Z,7.50
2019-05-07T19:21:46.303Z,7.20
2019-05-07T19:24:19.449Z,8.40
2019-05-07T19:26:52.857Z,7.07
2019-05-07T19:29:24.191Z,8.30
2019-05-07T19:31:55.683Z,9.30
2019-05-07T19:34:27.049Z,11.97
2019-05-07T19:36:58.333Z,9.87
2019-05-07T19:39:29.668Z,8.03
2019-05-07T19:42:02.606Z,6.27
2019-05-07T19:44:34.527Z,6.50
2019-05-07T19:47:05.864Z,6.67
2019-05-07T19:49:37.323Z,6.40
2019-05-07T19:52:12.429Z,5.60
2019-05-07T19:54:57.925Z,7.60
2019-05-07T19:57:23.203Z,7.47
2019-05-07T19:59:54.565Z,7.27
2019-05-07T20:02:32.004Z,7.00
2019-05-07T20:05:04.756Z,5.90
2019-05-07T20:07:36.307Z,6.10
2019-05-07T20:10:17.265Z,6.20
2019-05-07T20:12:48.705Z,7.40
2019-05-07T20:15:22.404Z,6.20
2019-05-07T20:17:57.784Z,10.03
2019-05-07T20:20:29.304Z,9.80
2019-05-07T20:23:06.730Z,10.17
2019-05-07T20:25:38.128Z,8.70
2019-05-07T20:28:12.587Z,7.70
2019-05-07T20:30:44.777Z,8.17
2019-05-07T20:33:26.416Z,6.87
2019-05-07T20:35:57.793Z,7.47
2019-05-07T20:38:29.092Z,7.67
2019-05-07T20:41:02.103Z,6.80
2019-05-07T20:43:33.619Z,6.90
2019-05-07T20:46:04.840Z,6.43
2019-05-07T20:48:36.380Z,6.47
2019-05-07T20:51:07.769Z,5.90
2019-05-07T20:53:56.291Z,6.27
2019-05-07T20:56:32.242Z,6.73
2019-05-07T20:59:03.943Z,7.50
2019-05-07T21:01:35.349Z,6.97
2019-05-07T21:04:06.615Z,6.70
2019-05-07T21:06:38.048Z,7.37
2019-05-07T21:09:09.751Z,6.40
2019-05-07T21:11:43.054Z,6.33
2019-05-07T21:14:14.152Z,6.23
2019-05-07T21:16:45.426Z,6.03
2019-05-07T21:19:16.813Z,6.50
2019-05-07T21:21:48.110Z,5.60
2019-05-07T21:24:19.408Z,6.07
2019-05-07T21:26:52.902Z,6.13
2019-05-07T21:29:23.828Z,7.10
2019-05-07T21:31:55.420Z,6.57
2019-05-07T21:34:27.294Z,5.90
2019-05-07T21:36:58.522Z,6.20
2019-05-07T21:39:29.803Z,6.67
2019-05-07T21:42:02.603Z,7.10
2019-05-07T21:44:33.791Z,6.47
2019-05-07T21:47:05.013Z,6.67
2019-05-07T21:49:36.468Z,6.80
2019-05-07T21:52:09.898Z,6.97
2019-05-07T21:55:04.098Z,8.80
2019-05-07T21:57:49.110Z,9.20
2019-05-07T22:00:45.308Z,7.43
2019-05-07T22:03:17.535Z,6.60
2019-05-07T22:05:51.751Z,7.77
2019-05-07T22:08:28.122Z,10.07
2019-05-07T22:10:59.342Z,9.60
2019-05-07T22:13:32.764Z,9.77
2019-05-07T22:16:04.023Z,9.67
2019-05-07T22:18:35.333Z,7.60
2019-05-07T22:21:12.701Z,6.50
2019-05-07T22:23:44.115Z,7.13
2019-05-07T22:26:22.656Z,7.67
2019-05-07T22:28:55.444Z,7.30
2019-05-07T22:31:44.279Z,6.43
2019-05-07T22:34:30.331Z,6.17
2019-05-07T22:37:06.278Z,6.50
2019-05-07T22:39:42.515Z,6.77
2019-05-07T22:42:13.831Z,7.83
2019-05-07T22:44:45.241Z,7.10
2019-05-07T22:47:23.050Z,7.77
2019-05-07T22:49:54.611Z,6.87
2019-05-07T22:52:26.024Z,6.60
2019-05-07T22:54:57.422Z,8.07
2019-05-07T22:57:46.222Z,7.60
2019-05-07T23:00:26.066Z,7.93
2019-05-07T23:02:57.524Z,9.23
2019-05-07T23:05:28.753Z,8.33
2019-05-07T23:08:02.406Z,7.97
2019-05-07T23:10:33.477Z,6.73
2019-05-07T23:13:04.751Z,7.77
2019-05-07T23:15:35.986Z,7.53
2019-05-07T23:18:07.201Z,8.40
2019-05-07T23:20:38.642Z,8.17
2019-05-07T23:23:13.906Z,6.40
2019-05-07T23:25:43.478Z,7.60
2019-05-07T23:28:14.699Z,7.00
2019-05-07T23:30:46.714Z,7.33
2019-05-07T23:33:18.085Z,8.37
2019-05-07T23:35:49.412Z,7.73
2019-05-07T23:38:22.584Z,7.40
2019-05-07T23:41:18.081Z,8.23
2019-05-07T23:44:07.422Z,7.03
2019-05-07T23:46:39.049Z,6.87
2019-05-07T23:49:12.380Z,7.17
2019-05-07T23:51:43.391Z,8.00
2019-05-07T23:54:15.085Z,8.30
2019-05-07T23:56:46.923Z,6.90
2019-05-07T23:59:18.193Z,6.37
